Time;durP1;ratioP1;P1;durP2;ratioP2;P2;SDS_P1;SDS_P2;PMS_P1;PMS_P2;Temp;Humidity;BMP_temperature;BMP_pressure;BME280_temperature;BME280_humidity;BME280_pressure;Samples;Min_cycle;Max_cycle;Signal;HPM_P1;HPM_P2
2021/06/23 00:01:01;;;;;;;14.35;5.60;;;;;;;;;;6253296;23;20024;-82
2021/06/23 00:03:29;;;;;;;15.40;5.95;;;;;;;;;;6253811;23;20028;-82
2021/06/23 00:05:56;;;;;;;15.52;5.40;;;;;;;;;;6252553;22;20063;-82
2021/06/23 00:08:24;;;;;;;12.52;4.78;;;;;;;;;;6251212;23;20024;-82
2021/06/23 00:10:52;;;;;;;24.55;4.97;;;;;;;;;;6252511;23;20043;-82
2021/06/23 00:13:19;;;;;;;13.27;4.45;;;;;;;;;;6249944;23;20050;-80
2021/06/23 00:15:46;;;;;;;14.35;4.45;;;;;;;;;;6251286;22;20032;-82
2021/06/23 00:18:19;;;;;;;13.15;4.45;;;;;;;;;;6253503;23;20024;-81
2021/06/23 00:20:46;;;;;;;14.32;4.75;;;;;;;;;;6253829;22;20086;-82
2021/06/23 00:23:12;;;;;;;10.95;4.05;;;;;;;;;;6254652;22;20027;-82
2021/06/23 00:25:41;;;;;;;12.05;4.50;;;;;;;;;;6253534;23;20028;-82
2021/06/23 00:28:14;;;;;;;15.40;5.00;;;;;;;;;;6255030;22;20028;-83
2021/06/23 00:30:41;;;;;;;16.45;4.70;;;;;;;;;;6255092;22;20071;-82
2021/06/23 00:33:10;;;;;;;12.18;4.15;;;;;;;;;;6255705;23;20398;-83
2021/06/23 00:35:52;;;;;;;15.82;5.68;;;;;;;;;;6269677;22;20012;-82
2021/06/23 00:38:19;;;;;;;12.55;5.30;;;;;;;;;;6269806;22;20036;-82
2021/06/23 00:40:45;;;;;;;14.55;4.95;;;;;;;;;;6253231;23;20028;-82
2021/06/23 00:43:12;;;;;;;13.90;4.68;;;;;;;;;;6252312;23;20024;-82
2021/06/23 00:45:49;;;;;;;12.75;4.95;;;;;;;;;;6255127;22;20039;-82
2021/06/23 00:48:15;;;;;;;;;;;;;;;;;;6253698;23;20030;-82
2021/06/23 00:50:42;;;;;;;17.48;4.65;;;;;;;;;;6252723;23;19962;-83
2021/06/23 00:53:08;;;;;;;12.23;3.70;;;;;;;;;;6252289;22;20024;-82
2021/06/23 00:55:38;;;;;;;11.85;4.03;;;;;;;;;;6254456;22;20020;-82
2021/06/23 00:58:05;;;;;;;14.07;4.07;;;;;;;;;;6275598;22;20030;-82
2021/06/23 01:00:33;;;;;;;10.70;3.42;;;;;;;;;;6258118;22;20032;-83
2021/06/23 01:03:02;;;;;;;11.05;3.70;;;;;;;;;;6283964;22;20079;-82
2021/06/23 01:05:32;;;;;;;17.67;4.00;;;;;;;;;;6257919;22;20027;-82
2021/06/23 01:07:59;;;;;;;12.55;3.97;;;;;;;;;;6263318;22;20023;-82
2021/06/23 01:10:29;;;;;;;12.30;3.75;;;;;;;;;;6261400;22;20034;-82
2021/06/23 01:13:40;;;;;;;13.60;4.07;;;;;;;;;;6261493;22;20047;-82
2021/06/23 01:16:08;;;;;;;12.15;4.35;;;;;;;;;;6161520;23;20040;-82
2021/06/23 01:18:36;;;;;;;15.93;3.58;;;;;;;;;;6162162;23;20036;-82
2021/06/23 01:21:03;;;;;;;12.32;3.17;;;;;;;;;;6227126;22;20059;-82
2021/06/23 01:23:34;;;;;;;12.32;3.90;;;;;;;;;;6284257;22;20027;-82
2021/06/23 01:26:01;;;;;;;16.27;3.65;;;;;;;;;;6284449;22;20028;-83
2021/06/23 01:28:27;;;;;;;13.45;3.20;;;;;;;;;;6284054;22;20024;-83
2021/06/23 01:30:56;;;;;;;11.45;3.40;;;;;;;;;;6283543;22;20361;-82
2021/06/23 01:33:23;;;;;;;12.60;3.72;;;;;;;;;;6283297;22;20110;-81
2021/06/23 01:35:51;;;;;;;16.20;3.15;;;;;;;;;;6284085;22;20020;-81
2021/06/23 01:38:19;;;;;;;17.02;3.38;;;;;;;;;;6283397;22;20027;-82
2021/06/23 01:40:45;;;;;;;14.43;2.90;;;;;;;;;;6256065;22;20122;-82
2021/06/23 01:43:12;;;;;;;7.00;2.88;;;;;;;;;;6256286;22;20126;-83
2021/06/23 01:45:40;;;;;;;15.00;3.10;;;;;;;;;;6253495;22;20305;-83
2021/06/23 01:48:07;;;;;;;10.43;3.13;;;;;;;;;;6281641;22;20028;-83
2021/06/23 01:50:33;;;;;;;10.23;2.70;;;;;;;;;;6282484;22;20032;-83
2021/06/23 01:53:00;;;;;;;8.85;2.70;;;;;;;;;;6255976;22;20295;-83
2021/06/23 01:55:27;;;;;;;8.13;2.38;;;;;;;;;;6281901;22;20023;-83
2021/06/23 01:58:05;;;;;;;11.15;2.72;;;;;;;;;;6248723;23;20067;-83
2021/06/23 02:00:48;;;;;;;11.02;2.80;;;;;;;;;;6250137;23;20024;-83
2021/06/23 02:03:16;;;;;;;12.07;2.17;;;;;;;;;;6250989;22;20032;-83
2021/06/23 02:05:49;;;;;;;12.77;2.92;;;;;;;;;;6251054;23;20028;-83
2021/06/23 02:08:52;;;;;;;12.70;2.70;;;;;;;;;;6252146;22;20047;-83
2021/06/23 02:11:19;;;;;;;10.15;2.47;;;;;;;;;;6254306;23;20514;-85
2021/06/23 02:13:51;;;;;;;6.13;2.35;;;;;;;;;;6253479;23;20051;-84
2021/06/23 02:16:44;;;;;;;9.00;2.50;;;;;;;;;;6253362;23;20032;-84
2021/06/23 02:19:10;;;;;;;7.68;2.72;;;;;;;;;;6251147;23;20050;-85
2021/06/23 02:21:39;;;;;;;10.18;2.40;;;;;;;;;;6253342;22;20028;-84
2021/06/23 02:24:07;;;;;;;15.32;3.08;;;;;;;;;;6255342;23;20027;-84
2021/06/23 02:26:34;;;;;;;12.35;2.65;;;;;;;;;;6261304;22;20038;-84
2021/06/23 02:29:02;;;;;;;8.85;2.60;;;;;;;;;;6257399;23;20028;-85
2021/06/23 02:31:29;;;;;;;11.13;2.95;;;;;;;;;;6256084;22;20028;-84
2021/06/23 02:34:07;;;;;;;16.85;3.35;;;;;;;;;;6254947;23;20043;-84
2021/06/23 02:36:34;;;;;;;9.90;2.50;;;;;;;;;;6254219;23;20028;-84
2021/06/23 02:39:01;;;;;;;11.65;3.10;;;;;;;;;;6255101;22;20035;-84
2021/06/23 02:41:27;;;;;;;12.18;2.78;;;;;;;;;;6255081;23;20036;-84
2021/06/23 02:43:54;;;;;;;13.30;2.80;;;;;;;;;;6254641;23;20459;-85
2021/06/23 02:46:21;;;;;;;16.27;2.40;;;;;;;;;;6253509;23;20031;-84
2021/06/23 02:48:50;;;;;;;9.52;2.30;;;;;;;;;;6255851;23;20364;-83
2021/06/23 02:51:19;;;;;;;13.43;2.72;;;;;;;;;;6255199;23;20051;-83
2021/06/23 02:53:50;;;;;;;20.65;2.60;;;;;;;;;;6254109;23;20024;-83
2021/06/23 02:56:17;;;;;;;15.95;3.13;;;;;;;;;;6255433;22;20013;-83
2021/06/23 02:58:44;;;;;;;8.95;2.63;;;;;;;;;;6253262;23;20028;-83
2021/06/23 03:01:16;;;;;;;9.88;2.67;;;;;;;;;;6253277;23;20028;-83
2021/06/23 03:03:43;;;;;;;8.40;3.05;;;;;;;;;;6253185;23;20090;-83
2021/06/23 03:06:10;;;;;;;10.13;2.75;;;;;;;;;;6253150;23;20485;-83
2021/06/23 03:08:38;;;;;;;11.43;2.92;;;;;;;;;;6255816;22;20017;-83
2021/06/23 03:11:06;;;;;;;11.45;3.28;;;;;;;;;;6254408;23;20437;-84
2021/06/23 03:13:32;;;;;;;20.73;4.25;;;;;;;;;;6253109;23;20035;-84
2021/06/23 03:16:03;;;;;;;11.50;3.25;;;;;;;;;;6253323;23;20035;-84
2021/06/23 03:18:34;;;;;;;12.38;3.55;;;;;;;;;;6255248;22;20024;-84
2021/06/23 03:21:02;;;;;;;13.13;3.30;;;;;;;;;;6254893;22;20075;-83
2021/06/23 03:23:28;;;;;;;16.15;3.38;;;;;;;;;;6252988;23;20048;-84
2021/06/23 03:26:11;;;;;;;12.82;2.97;;;;;;;;;;6255546;22;20063;-84
2021/06/23 03:28:38;;;;;;;14.55;3.42;;;;;;;;;;6254591;23;20029;-84
2021/06/23 03:31:05;;;;;;;14.25;2.72;;;;;;;;;;6253539;23;20034;-84
2021/06/23 03:33:32;;;;;;;14.82;2.92;;;;;;;;;;6254805;23;20024;-84
2021/06/23 03:36:01;;;;;;;12.13;3.13;;;;;;;;;;6254453;22;20051;-84
2021/06/23 03:38:28;;;;;;;12.80;3.50;;;;;;;;;;6256377;22;20074;-83
2021/06/23 03:40:54;;;;;;;13.77;3.30;;;;;;;;;;6254671;23;20040;-83
2021/06/23 03:43:23;;;;;;;17.85;3.72;;;;;;;;;;6259029;22;20090;-84
2021/06/23 03:45:53;;;;;;;10.02;2.78;;;;;;;;;;6264747;22;20028;-84
2021/06/23 03:48:20;;;;;;;13.48;3.25;;;;;;;;;;6265023;22;20031;-84
2021/06/23 03:50:48;;;;;;;10.40;3.25;;;;;;;;;;6264230;22;20024;-84
2021/06/23 03:53:15;;;;;;;13.00;3.30;;;;;;;;;;6264595;22;20034;-83
2021/06/23 03:55:42;;;;;;;13.00;3.35;;;;;;;;;;6271909;22;20013;-85
2021/06/23 03:58:08;;;;;;;19.13;3.80;;;;;;;;;;6271580;22;20031;-81
2021/06/23 04:01:04;;;;;;;12.68;3.97;;;;;;;;;;6261880;23;20035;-83
2021/06/23 04:03:31;;;;;;;13.30;3.72;;;;;;;;;;6259053;23;20417;-84
2021/06/23 04:06:00;;;;;;;13.13;3.50;;;;;;;;;;6257361;23;20028;-84
2021/06/23 04:08:26;;;;;;;18.27;4.03;;;;;;;;;;6255363;23;20027;-84
2021/06/23 04:10:53;;;;;;;16.52;3.60;;;;;;;;;;6255829;22;20417;-83
2021/06/23 04:13:20;;;;;;;13.25;3.65;;;;;;;;;;6258452;22;20063;-84
2021/06/23 04:15:47;;;;;;;17.58;3.83;;;;;;;;;;6258180;22;20034;-83
2021/06/23 04:18:13;;;;;;;12.93;3.63;;;;;;;;;;6256273;23;20034;-84
2021/06/23 04:20:40;;;;;;;10.98;3.42;;;;;;;;;;6254396;23;20024;-84
2021/06/23 04:23:06;;;;;;;22.88;5.38;;;;;;;;;;6255335;22;20372;-82
2021/06/23 04:25:33;;;;;;;17.30;4.22;;;;;;;;;;6254446;23;20099;-84
2021/06/23 04:28:25;;;;;;;14.88;3.70;;;;;;;;;;6256006;23;20028;-86
2021/06/23 04:30:54;;;;;;;11.60;3.38;;;;;;;;;;6268336;22;20048;-84
2021/06/23 04:33:21;;;;;;;11.75;3.83;;;;;;;;;;6255470;23;20012;-85
2021/06/23 04:35:49;;;;;;;17.63;3.45;;;;;;;;;;6256924;22;20054;-84
2021/06/23 04:38:22;;;;;;;15.57;3.72;;;;;;;;;;6255108;22;20031;-84
2021/06/23 04:40:48;;;;;;;21.20;3.40;;;;;;;;;;6254059;23;20024;-84
2021/06/23 04:43:15;;;;;;;11.18;3.20;;;;;;;;;;6255591;23;20028;-84
2021/06/23 04:45:41;;;;;;;16.63;3.08;;;;;;;;;;6256841;22;20077;-84
2021/06/23 04:48:08;;;;;;;15.55;3.35;;;;;;;;;;6254600;23;20024;-85
2021/06/23 04:50:35;;;;;;;13.80;3.55;;;;;;;;;;6254675;22;20028;-84
2021/06/23 04:53:02;;;;;;;13.00;3.00;;;;;;;;;;6252858;22;20063;-84
2021/06/23 04:55:32;;;;;;;16.25;3.25;;;;;;;;;;6252208;23;20024;-85
2021/06/23 04:58:00;;;;;;;17.52;3.70;;;;;;;;;;6272352;22;20372;-84
2021/06/23 05:00:27;;;;;;;19.83;3.40;;;;;;;;;;6285371;22;20034;-84
2021/06/23 05:03:32;;;;;;;14.10;3.15;;;;;;;;;;6280285;22;20035;-84
2021/06/23 05:06:01;;;;;;;9.60;3.28;;;;;;;;;;6281449;22;20073;-84
2021/06/23 05:08:28;;;;;;;11.18;3.13;;;;;;;;;;6253811;22;20086;-84
2021/06/23 05:11:01;;;;;;;14.95;2.78;;;;;;;;;;6280747;22;20468;-84
2021/06/23 05:13:31;;;;;;;8.88;3.20;;;;;;;;;;6255072;22;20023;-83
2021/06/23 05:15:59;;;;;;;21.88;3.00;;;;;;;;;;6281007;22;20019;-84
2021/06/23 05:18:27;;;;;;;7.22;2.83;;;;;;;;;;6254444;22;20028;-84
2021/06/23 05:21:09;;;;;;;15.80;3.40;;;;;;;;;;6282874;22;20070;-85
2021/06/23 05:23:36;;;;;;;11.10;2.55;;;;;;;;;;6260333;22;20072;-84
2021/06/23 05:26:10;;;;;;;10.35;3.00;;;;;;;;;;6291335;22;20037;-84
2021/06/23 05:28:39;;;;;;;14.02;3.22;;;;;;;;;;6265404;22;20071;-84
2021/06/23 05:31:09;;;;;;;10.00;2.97;;;;;;;;;;6283684;22;20027;-85
2021/06/23 05:33:35;;;;;;;10.57;3.28;;;;;;;;;;6253190;22;20076;-85
2021/06/23 05:36:05;;;;;;;8.65;3.13;;;;;;;;;;6279048;22;20024;-84
2021/06/23 05:38:32;;;;;;;10.68;3.17;;;;;;;;;;6254100;22;20023;-84
2021/06/23 05:40:59;;;;;;;12.27;3.38;;;;;;;;;;6254205;22;20030;-85
2021/06/23 05:43:25;;;;;;;12.93;3.58;;;;;;;;;;6251671;22;20269;-84
2021/06/23 05:46:07;;;;;;;13.75;3.80;;;;;;;;;;6279773;22;20087;-83
2021/06/23 05:48:34;;;;;;;19.13;3.85;;;;;;;;;;6280276;22;20074;-84
2021/06/23 05:51:01;;;;;;;15.30;3.92;;;;;;;;;;6251946;22;20235;-85
2021/06/23 05:53:36;;;;;;;17.55;3.60;;;;;;;;;;6252403;22;20264;-84
2021/06/23 05:56:02;;;;;;;11.88;2.95;;;;;;;;;;6250399;22;20034;-84
2021/06/23 05:58:29;;;;;;;10.70;2.95;;;;;;;;;;6275632;22;20408;-84
2021/06/23 06:01:00;;;;;;;13.15;3.42;;;;;;;;;;6251192;22;20024;-84
2021/06/23 06:03:27;;;;;;;12.07;3.08;;;;;;;;;;6276228;22;20212;-84
2021/06/23 06:05:53;;;;;;;13.20;3.42;;;;;;;;;;6251048;22;20202;-83
2021/06/23 06:08:20;;;;;;;10.00;2.58;;;;;;;;;;6275408;22;20035;-84
2021/06/23 06:10:56;;;;;;;20.38;3.38;;;;;;;;;;6279088;22;20035;-83
2021/06/23 06:13:23;;;;;;;16.60;4.30;;;;;;;;;;6280851;22;20393;-83
2021/06/23 06:15:50;;;;;;;13.52;3.40;;;;;;;;;;6280661;22;20214;-84
2021/06/23 06:18:22;;;;;;;14.20;3.78;;;;;;;;;;6279761;22;20028;-84
2021/06/23 06:20:49;;;;;;;16.75;2.85;;;;;;;;;;6255036;22;20103;-84
2021/06/23 06:23:18;;;;;;;15.98;3.63;;;;;;;;;;6252046;22;20294;-84
2021/06/23 06:25:48;;;;;;;15.57;4.22;;;;;;;;;;6283190;22;20122;-83
2021/06/23 06:28:15;;;;;;;14.18;3.53;;;;;;;;;;6282316;22;20031;-85
2021/06/23 06:30:41;;;;;;;13.40;3.05;;;;;;;;;;6281124;22;20024;-86
2021/06/23 06:33:18;;;;;;;14.32;4.20;;;;;;;;;;6283060;22;20207;-84
2021/06/23 06:35:45;;;;;;;12.25;3.22;;;;;;;;;;6278890;22;20027;-87
2021/06/23 06:38:12;;;;;;;18.13;3.42;;;;;;;;;;6258258;22;20089;-84
2021/06/23 06:40:42;;;;;;;15.32;3.22;;;;;;;;;;6281219;22;20081;-84
2021/06/23 06:43:12;;;;;;;14.77;2.95;;;;;;;;;;6281460;22;20074;-84
2021/06/23 06:45:38;;;;;;;10.05;2.70;;;;;;;;;;6253651;22;20031;-84
2021/06/23 06:48:06;;;;;;;16.23;2.80;;;;;;;;;;6281081;22;20023;-83
2021/06/23 06:50:32;;;;;;;14.98;2.90;;;;;;;;;;6281220;22;20027;-83
2021/06/23 06:52:59;;;;;;;11.88;2.25;;;;;;;;;;6285223;22;20074;-84
2021/06/23 06:55:25;;;;;;;12.55;2.65;;;;;;;;;;6283621;22;20102;-84
2021/06/23 06:57:52;;;;;;;13.25;2.70;;;;;;;;;;6253611;22;20035;-84
2021/06/23 07:00:20;;;;;;;13.68;2.90;;;;;;;;;;6279360;22;20189;-83
2021/06/23 07:03:01;;;;;;;15.35;2.50;;;;;;;;;;6248087;22;20027;-83
2021/06/23 07:05:41;;;;;;;15.93;2.75;;;;;;;;;;6257088;22;20063;-83
2021/06/23 07:08:08;;;;;;;13.07;2.70;;;;;;;;;;6252626;22;20032;-83
2021/06/23 07:10:38;;;;;;;14.27;2.67;;;;;;;;;;6278376;22;20059;-84
2021/06/23 07:13:07;;;;;;;16.67;2.47;;;;;;;;;;6288102;22;20067;-83
2021/06/23 07:15:43;;;;;;;10.63;2.30;;;;;;;;;;6266526;22;20024;-83
2021/06/23 07:18:10;;;;;;;12.10;2.70;;;;;;;;;;6259422;22;20197;-85
2021/06/23 07:20:37;;;;;;;15.30;2.70;;;;;;;;;;6255252;22;20036;-83
2021/06/23 07:23:15;;;;;;;18.10;2.95;;;;;;;;;;6279257;22;20175;-83
2021/06/23 07:25:42;;;;;;;12.52;2.60;;;;;;;;;;6279415;22;20173;-83
2021/06/23 07:28:13;;;;;;;12.80;2.55;;;;;;;;;;6280682;22;20024;-84
2021/06/23 07:30:44;;;;;;;9.82;2.38;;;;;;;;;;6280496;22;20316;-84
2021/06/23 07:33:11;;;;;;;14.93;3.13;;;;;;;;;;6282224;22;20023;-84
2021/06/23 07:38:23;;;;;;;8.57;2.20;;;;;;;;;;6287111;22;20031;-84
2021/06/23 07:41:02;;;;;;;9.15;2.17;;;;;;;;;;6283240;22;20087;-82
2021/06/23 07:43:29;;;;;;;8.32;2.50;;;;;;;;;;6284009;22;20028;-83
2021/06/23 07:45:58;;;;;;;10.35;2.53;;;;;;;;;;6255653;22;20042;-84
2021/06/23 07:48:49;;;;;;;8.65;2.10;;;;;;;;;;6259735;22;20020;-84
2021/06/23 07:51:27;;;;;;;13.65;2.15;;;;;;;;;;6258283;22;20031;-83
2021/06/23 07:54:08;;;;;;;10.10;2.30;;;;;;;;;;6257176;22;20389;-84
2021/06/23 08:10:05;;;;;;;9.48;2.58;;;;;;;;;;6291220;22;20031;-83
2021/06/23 08:15:24;;;;;;;9.27;2.30;;;;;;;;;;6283827;22;20023;-83
2021/06/23 08:17:52;;;;;;;7.07;1.75;;;;;;;;;;6260479;22;20019;-85
2021/06/23 08:20:23;;;;;;;12.00;1.90;;;;;;;;;;6282101;22;20030;-84
2021/06/23 08:22:50;;;;;;;12.13;2.08;;;;;;;;;;6280632;22;20023;-83
2021/06/23 08:25:17;;;;;;;8.48;2.08;;;;;;;;;;6282673;22;20023;-83
2021/06/23 08:27:50;;;;;;;12.43;2.30;;;;;;;;;;6252950;22;20050;-83
2021/06/23 08:30:20;;;;;;;11.00;1.88;;;;;;;;;;6250961;22;20024;-82
2021/06/23 08:32:48;;;;;;;10.55;2.13;;;;;;;;;;6250621;22;20024;-82
2021/06/23 08:35:19;;;;;;;14.25;2.83;;;;;;;;;;6245061;22;20078;-80
2021/06/23 08:37:46;;;;;;;5.90;2.22;;;;;;;;;;6244586;22;20091;-81
2021/06/23 08:40:13;;;;;;;11.98;2.45;;;;;;;;;;6250351;22;20027;-82
2021/06/23 08:42:47;;;;;;;11.35;1.75;;;;;;;;;;6251416;22;20421;-82
2021/06/23 08:45:14;;;;;;;11.15;2.30;;;;;;;;;;6278590;22;20051;-82
2021/06/23 08:47:42;;;;;;;13.93;2.40;;;;;;;;;;6254810;22;20027;-82
2021/06/23 08:50:20;;;;;;;8.98;2.05;;;;;;;;;;6248714;22;20027;-82
2021/06/23 08:52:47;;;;;;;9.85;1.90;;;;;;;;;;6277008;22;20051;-81
2021/06/23 08:55:19;;;;;;;13.20;2.85;;;;;;;;;;6276778;22;20034;-82
2021/06/23 08:57:47;;;;;;;11.98;2.47;;;;;;;;;;6244179;23;20398;-80
2021/06/23 09:00:39;;;;;;;17.58;2.53;;;;;;;;;;6247994;23;20035;-83
2021/06/23 09:03:06;;;;;;;9.38;2.53;;;;;;;;;;6251728;23;20444;-80
2021/06/23 09:05:53;;;;;;;10.55;2.50;;;;;;;;;;6248358;23;20033;-83
2021/06/23 09:08:19;;;;;;;;;;;;;;;;;;6249257;23;20197;-82
2021/06/23 09:10:46;;;;;;;;;;;;;;;;;;6247394;22;19951;-82
2021/06/23 09:13:13;;;;;;;11.98;2.70;;;;;;;;;;6242309;22;19926;-81
2021/06/23 09:16:00;;;;;;;12.52;3.30;;;;;;;;;;6245063;22;20031;-82
2021/06/23 09:18:32;;;;;;;8.93;2.30;;;;;;;;;;6244237;22;20028;-82
2021/06/23 09:21:00;;;;;;;7.82;2.55;;;;;;;;;;6242667;23;20433;-81
2021/06/23 09:23:45;;;;;;;13.73;2.92;;;;;;;;;;6241736;23;20219;-82
2021/06/23 09:26:18;;;;;;;13.68;2.60;;;;;;;;;;6238927;23;20213;-82
2021/06/23 09:29:02;;;;;;;13.05;2.80;;;;;;;;;;6235954;23;20028;-82
2021/06/23 09:32:00;;;;;;;16.00;3.05;;;;;;;;;;6248088;23;20094;-81
2021/06/23 09:34:30;;;;;;;12.65;2.75;;;;;;;;;;6241963;22;20154;-81
2021/06/23 09:36:57;;;;;;;10.88;2.50;;;;;;;;;;6255209;23;20388;-81
2021/06/23 09:39:31;;;;;;;14.15;2.92;;;;;;;;;;6253121;23;20064;-82
2021/06/23 09:41:58;;;;;;;13.70;2.80;;;;;;;;;;6252711;22;20028;-82
2021/06/23 09:44:26;;;;;;;14.63;2.45;;;;;;;;;;6244932;23;20316;-81
2021/06/23 09:46:59;;;;;;;8.73;2.42;;;;;;;;;;6244963;23;20287;-81
2021/06/23 09:49:27;;;;;;;9.63;2.35;;;;;;;;;;6242788;23;20090;-82
2021/06/23 09:51:55;;;;;;;6.55;2.15;;;;;;;;;;6243126;22;20401;-82
2021/06/23 09:54:26;;;;;;;11.90;2.60;;;;;;;;;;6242082;22;20309;-82
2021/06/23 09:57:08;;;;;;;9.82;2.28;;;;;;;;;;6241458;22;20177;-82
2021/06/23 09:59:39;;;;;;;11.68;2.30;;;;;;;;;;6240343;23;20046;-82
2021/06/23 10:02:24;;;;;;;9.90;2.50;;;;;;;;;;6245069;22;20028;-82
2021/06/23 10:04:52;;;;;;;12.13;2.40;;;;;;;;;;6243444;23;20452;-82
2021/06/23 10:07:37;;;;;;;12.32;2.47;;;;;;;;;;6245230;23;20476;-81
2021/06/23 10:10:04;;;;;;;11.33;2.20;;;;;;;;;;6245625;23;20553;-82
2021/06/23 10:13:02;;;;;;;12.20;2.72;;;;;;;;;;6243525;22;20024;-82
2021/06/23 10:15:29;;;;;;;8.02;2.33;;;;;;;;;;6242843;23;20035;-84
2021/06/23 10:17:57;;;;;;;9.88;2.42;;;;;;;;;;6244363;23;20110;-82
2021/06/23 10:20:23;;;;;;;14.30;2.58;;;;;;;;;;6245759;23;20078;-83
2021/06/23 10:22:57;;;;;;;13.98;2.75;;;;;;;;;;6241689;22;20149;-83
2021/06/23 10:25:24;;;;;;;17.35;2.67;;;;;;;;;;6244495;22;20076;-82
2021/06/23 10:27:53;;;;;;;15.68;2.50;;;;;;;;;;6245387;22;20084;-81
2021/06/23 10:30:21;;;;;;;15.73;2.42;;;;;;;;;;6243378;22;20035;-81
2021/06/23 10:32:48;;;;;;;10.48;2.20;;;;;;;;;;6244151;23;20175;-83
2021/06/23 10:35:15;;;;;;;13.15;2.15;;;;;;;;;;6243239;23;20048;-81
2021/06/23 10:37:44;;;;;;;9.75;1.92;;;;;;;;;;6243468;23;20099;-81
2021/06/23 10:40:12;;;;;;;11.43;2.45;;;;;;;;;;6252785;22;20027;-83
2021/06/23 10:42:39;;;;;;;10.50;2.22;;;;;;;;;;6256897;22;20035;-82
2021/06/23 10:45:10;;;;;;;12.20;2.00;;;;;;;;;;6253119;22;20066;-82
2021/06/23 10:47:39;;;;;;;15.07;2.70;;;;;;;;;;6241583;22;20035;-82
2021/06/23 10:50:17;;;;;;;8.48;2.25;;;;;;;;;;6244167;23;20241;-83
2021/06/23 10:52:45;;;;;;;12.15;3.03;;;;;;;;;;6245739;22;20051;-82
2021/06/23 10:55:20;;;;;;;9.05;2.15;;;;;;;;;;6243194;22;20024;-82
2021/06/23 10:57:54;;;;;;;13.80;2.55;;;;;;;;;;6246665;23;20103;-83
2021/06/23 11:00:23;;;;;;;7.95;2.08;;;;;;;;;;6245964;23;20024;-82
2021/06/23 11:02:58;;;;;;;11.20;2.03;;;;;;;;;;6250710;23;20072;-82
2021/06/23 11:05:36;;;;;;;11.88;2.22;;;;;;;;;;6250711;22;20155;-82
2021/06/23 11:08:03;;;;;;;;;;;;;;;;;;6248244;22;20086;-81
2021/06/23 11:10:48;;;;;;;10.00;2.13;;;;;;;;;;6242764;23;19927;-86
2021/06/23 11:13:36;;;;;;;7.30;1.80;;;;;;;;;;6245704;23;20035;-82
2021/06/23 11:16:04;;;;;;;9.55;2.03;;;;;;;;;;6247187;22;20024;-83
2021/06/23 11:18:32;;;;;;;11.88;2.35;;;;;;;;;;6248690;23;20516;-82
2021/06/23 11:21:27;;;;;;;11.75;2.13;;;;;;;;;;6242367;23;20024;-82
2021/06/23 11:23:58;;;;;;;10.20;2.30;;;;;;;;;;6250622;22;20024;-83
2021/06/23 11:26:25;;;;;;;12.60;1.95;;;;;;;;;;6244591;22;20032;-83
2021/06/23 11:29:10;;;;;;;10.65;2.22;;;;;;;;;;6245355;22;20028;-82
2021/06/23 11:31:46;;;;;;;13.73;2.10;;;;;;;;;;6246670;23;20152;-82
2021/06/23 11:34:35;;;;;;;8.98;2.20;;;;;;;;;;6247116;23;20197;-82
2021/06/23 11:37:08;;;;;;;13.43;2.22;;;;;;;;;;6250918;23;20028;-82
2021/06/23 11:39:35;;;;;;;10.43;2.30;;;;;;;;;;6243326;22;20325;-83
2021/06/23 11:42:12;;;;;;;8.60;2.33;;;;;;;;;;6242737;23;20187;-83
2021/06/23 11:44:39;;;;;;;7.22;1.75;;;;;;;;;;6243765;23;20039;-83
2021/06/23 11:47:07;;;;;;;13.77;2.35;;;;;;;;;;6242669;23;20020;-82
2021/06/23 11:49:49;;;;;;;11.93;1.90;;;;;;;;;;6242697;23;20055;-81
2021/06/23 11:52:15;;;;;;;12.15;2.67;;;;;;;;;;6241726;23;20021;-83
2021/06/23 11:54:42;;;;;;;9.63;2.00;;;;;;;;;;6250936;23;20008;-84
2021/06/23 11:57:10;;;;;;;8.85;2.42;;;;;;;;;;6250150;22;20384;-85
2021/06/23 11:59:44;;;;;;;10.85;2.63;;;;;;;;;;6278940;22;20024;-82
2021/06/23 12:02:11;;;;;;;10.75;2.53;;;;;;;;;;6283547;22;20417;-82
2021/06/23 12:04:38;;;;;;;11.40;2.55;;;;;;;;;;6274445;22;20111;-83
2021/06/23 12:07:08;;;;;;;9.82;2.03;;;;;;;;;;6272843;22;20020;-82
2021/06/23 12:09:35;;;;;;;9.57;2.17;;;;;;;;;;6270917;22;20059;-83
2021/06/23 12:12:01;;;;;;;12.02;2.42;;;;;;;;;;6274145;22;20146;-84
2021/06/23 12:14:29;;;;;;;13.27;2.65;;;;;;;;;;6244336;22;20047;-82
2021/06/23 12:16:56;;;;;;;11.52;2.15;;;;;;;;;;6242627;22;20206;-82
2021/06/23 12:19:26;;;;;;;9.88;2.17;;;;;;;;;;6273464;22;20355;-83
2021/06/23 12:22:02;;;;;;;7.40;2.08;;;;;;;;;;6248202;22;20030;-81
2021/06/23 12:24:29;;;;;;;11.70;2.55;;;;;;;;;;6251357;22;20082;-82
2021/06/23 12:26:55;;;;;;;11.38;2.67;;;;;;;;;;6245866;22;20042;-82
2021/06/23 12:29:28;;;;;;;8.13;2.50;;;;;;;;;;6249253;22;20027;-82
2021/06/23 12:31:55;;;;;;;11.82;2.40;;;;;;;;;;6279407;22;20054;-82
2021/06/23 12:34:22;;;;;;;9.88;2.58;;;;;;;;;;6279231;22;20133;-84
2021/06/23 12:36:55;;;;;;;8.55;2.38;;;;;;;;;;6278634;22;20031;-82
2021/06/23 12:39:22;;;;;;;12.48;2.90;;;;;;;;;;6275010;22;20019;-82
2021/06/23 12:41:49;;;;;;;7.38;2.58;;;;;;;;;;6252927;22;20557;-82
2021/06/23 12:44:16;;;;;;;14.68;2.92;;;;;;;;;;6275905;22;20033;-83
2021/06/23 12:46:43;;;;;;;9.30;2.92;;;;;;;;;;6244823;22;20263;-82
2021/06/23 12:49:13;;;;;;;10.30;2.65;;;;;;;;;;6269476;22;20023;-83
2021/06/23 12:51:41;;;;;;;8.43;2.85;;;;;;;;;;6274769;22;20114;-83
2021/06/23 12:54:08;;;;;;;15.40;2.65;;;;;;;;;;6247379;22;20210;-83
2021/06/23 12:56:37;;;;;;;8.60;2.40;;;;;;;;;;6249165;22;20016;-82
2021/06/23 12:59:04;;;;;;;9.18;2.15;;;;;;;;;;6272495;22;20080;-82
2021/06/23 13:01:31;;;;;;;10.98;2.75;;;;;;;;;;6244086;22;20078;-82
2021/06/23 13:03:58;;;;;;;7.68;1.73;;;;;;;;;;6245791;22;20024;-82
2021/06/23 13:06:31;;;;;;;8.27;2.20;;;;;;;;;;6245926;22;20063;-82
2021/06/23 13:08:58;;;;;;;8.77;2.38;;;;;;;;;;6248545;22;20467;-83
2021/06/23 13:11:27;;;;;;;14.88;2.38;;;;;;;;;;6274294;22;20023;-83
2021/06/23 13:14:00;;;;;;;11.95;2.45;;;;;;;;;;6248908;22;20291;-82
2021/06/23 13:16:28;;;;;;;12.40;2.30;;;;;;;;;;6248731;22;20081;-83
2021/06/23 13:19:01;;;;;;;10.55;2.20;;;;;;;;;;6249976;22;20035;-82
2021/06/23 13:21:42;;;;;;;12.43;2.38;;;;;;;;;;6254471;22;20039;-83
2021/06/23 13:24:08;;;;;;;9.63;2.05;;;;;;;;;;6275113;22;20034;-81
2021/06/23 13:26:35;;;;;;;9.90;2.40;;;;;;;;;;6278433;22;20404;-83
2021/06/23 13:29:05;;;;;;;17.70;2.38;;;;;;;;;;6253212;22;20164;-83
2021/06/23 13:31:31;;;;;;;5.95;2.22;;;;;;;;;;6254675;22;20035;-83
2021/06/23 13:33:58;;;;;;;5.90;2.05;;;;;;;;;;6276560;22;20027;-82
2021/06/23 13:36:29;;;;;;;11.15;2.67;;;;;;;;;;6251751;22;20074;-83
2021/06/23 13:39:04;;;;;;;;;;;;;;;;;;6251363;22;20170;-83
2021/06/23 13:41:31;;;;;;;;;;;;;;;;;;6247122;22;19934;-83
2021/06/23 13:44:04;;;;;;;;;;;;;;;;;;6249817;22;19915;-83
2021/06/23 13:46:30;;;;;;;11.05;3.67;;;;;;;;;;6284223;22;19966;-83
2021/06/23 13:48:57;;;;;;;10.82;2.65;;;;;;;;;;6254722;22;20062;-82
2021/06/23 13:51:27;;;;;;;10.30;2.78;;;;;;;;;;6276586;22;20038;-82
2021/06/23 13:53:54;;;;;;;9.10;2.40;;;;;;;;;;6246382;22;20085;-82
2021/06/23 13:56:21;;;;;;;7.85;2.22;;;;;;;;;;6272892;22;20023;-82
2021/06/23 13:58:48;;;;;;;17.05;2.85;;;;;;;;;;6246056;22;20035;-82
2021/06/23 14:01:17;;;;;;;10.80;2.22;;;;;;;;;;6195748;23;20038;-83
2021/06/23 14:03:44;;;;;;;14.60;2.65;;;;;;;;;;6250318;23;20032;-82
2021/06/23 14:06:10;;;;;;;19.10;2.67;;;;;;;;;;6237675;22;20089;-81
2021/06/23 14:08:37;;;;;;;10.40;2.17;;;;;;;;;;6261101;22;20098;-83
2021/06/23 14:11:04;;;;;;;9.95;2.35;;;;;;;;;;6221603;23;20012;-83
2021/06/23 14:13:43;;;;;;;10.90;2.83;;;;;;;;;;6245743;23;20143;-84
2021/06/23 14:16:10;;;;;;;13.07;2.88;;;;;;;;;;6219263;23;20202;-82
2021/06/23 14:18:37;;;;;;;13.43;3.08;;;;;;;;;;6221748;23;20074;-84
2021/06/23 14:21:13;;;;;;;10.18;2.42;;;;;;;;;;6244664;23;20566;-82
2021/06/23 14:23:40;;;;;;;6.10;1.95;;;;;;;;;;6220592;23;20058;-83
2021/06/23 14:26:10;;;;;;;7.82;1.88;;;;;;;;;;6242910;23;20020;-83
2021/06/23 14:28:46;;;;;;;7.43;2.05;;;;;;;;;;6244622;23;20031;-83
2021/06/23 14:31:13;;;;;;;;;;;;;;;;;;6219074;23;20026;-83
2021/06/23 14:33:40;;;;;;;9.30;2.70;;;;;;;;;;6214877;23;20228;-82
2021/06/23 14:36:10;;;;;;;16.05;3.10;;;;;;;;;;6217891;23;20051;-82
2021/06/23 14:38:38;;;;;;;8.90;2.75;;;;;;;;;;6218693;23;20314;-85
2021/06/23 14:41:08;;;;;;;7.80;3.17;;;;;;;;;;6216571;23;20024;-82
2021/06/23 14:43:38;;;;;;;10.73;2.50;;;;;;;;;;6215480;23;20035;-82
2021/06/23 14:46:04;;;;;;;9.68;2.50;;;;;;;;;;6214406;23;20051;-82
2021/06/23 14:48:32;;;;;;;13.90;2.63;;;;;;;;;;6214167;23;20059;-82
2021/06/23 14:51:36;;;;;;;11.95;2.55;;;;;;;;;;6218872;23;20032;-83
2021/06/23 14:54:03;;;;;;;5.82;1.63;;;;;;;;;;6219601;23;20036;-82
2021/06/23 14:56:30;;;;;;;9.13;2.00;;;;;;;;;;6215524;23;20335;-81
2021/06/23 14:59:00;;;;;;;9.90;2.15;;;;;;;;;;6215072;23;20087;-82
2021/06/23 15:01:27;;;;;;;12.40;2.70;;;;;;;;;;6212700;23;20016;-82
2021/06/23 15:04:08;;;;;;;13.30;2.30;;;;;;;;;;6239967;23;20358;-84
2021/06/23 15:06:35;;;;;;;8.25;2.60;;;;;;;;;;6244656;23;20039;-84
2021/06/23 15:09:02;;;;;;;8.55;2.63;;;;;;;;;;6218029;23;20039;-85
2021/06/23 15:11:34;;;;;;;13.05;2.88;;;;;;;;;;6219749;23;20076;-85
2021/06/23 15:14:01;;;;;;;9.35;3.25;;;;;;;;;;6218824;23;20016;-84